createdAt,value
2022-09-15T00:02:13.642Z,13.48
2022-09-15T00:04:46.299Z,12.13
2022-09-15T00:07:18.953Z,11.02
2022-09-15T00:09:51.500Z,13.35
2022-09-15T00:12:24.299Z,12.98
2022-09-15T00:14:57.019Z,9.43
2022-09-15T00:17:29.921Z,12.27
2022-09-15T00:20:02.913Z,13.50
2022-09-15T00:22:35.636Z,15.05
2022-09-15T00:25:08.354Z,12.02
2022-09-15T00:27:41.329Z,17.88
2022-09-15T00:30:14.172Z,11.02
2022-09-15T00:32:46.891Z,10.13
2022-09-15T00:35:19.319Z,13.65
2022-09-15T00:37:51.809Z,12.00
2022-09-15T00:40:24.335Z,14.48
2022-09-15T00:42:56.841Z,11.63
2022-09-15T00:45:29.756Z,14.73
2022-09-15T00:48:04.637Z,15.65
2022-09-15T00:50:37.882Z,17.15
2022-09-15T00:53:13.292Z,10.10
2022-09-15T00:55:49.044Z,8.93
2022-09-15T00:58:28.171Z,10.95
2022-09-15T01:01:03.502Z,10.55
2022-09-15T01:06:16.324Z,12.18
2022-09-15T01:09:08.547Z,12.50
2022-09-15T01:11:42.300Z,9.27
2022-09-15T01:14:15.012Z,12.93
2022-09-15T01:17:18.835Z,14.10
2022-09-15T01:20:10.076Z,14.23
2022-09-15T01:22:59.333Z,7.63
2022-09-15T01:25:47.334Z,11.77
2022-09-15T01:28:36.038Z,11.18
2022-09-15T01:31:29.274Z,15.68
2022-09-15T01:34:09.756Z,14.75
2022-09-15T01:36:56.462Z,11.30
2022-09-15T01:39:36.768Z,11.10
2022-09-15T01:42:13.260Z,13.95
2022-09-15T01:44:52.325Z,12.75
2022-09-15T01:47:28.563Z,13.52
2022-09-15T01:50:09.923Z,13.55
2022-09-15T01:52:47.193Z,8.85
2022-09-15T01:55:32.454Z,11.05
2022-09-15T01:58:05.417Z,12.32
2022-09-15T02:00:44.624Z,9.82
2022-09-15T02:03:25.693Z,13.00
2022-09-15T02:06:04.456Z,12.63
2022-09-15T02:08:45.573Z,14.98
2022-09-15T02:11:21.952Z,16.40
2022-09-15T02:14:17.664Z,9.48
2022-09-15T02:16:54.276Z,10.93
2022-09-15T02:19:40.082Z,11.90
2022-09-15T02:24:54.015Z,16.42
2022-09-15T02:27:31.904Z,12.02
2022-09-15T02:30:12.053Z,11.07
2022-09-15T02:33:01.548Z,14.10
2022-09-15T02:35:36.369Z,10.70
2022-09-15T02:38:10.988Z,12.65
2022-09-15T02:40:44.979Z,9.27
2022-09-15T02:43:18.965Z,8.98
2022-09-15T02:45:51.519Z,15.63
2022-09-15T02:48:25.644Z,10.00
2022-09-15T02:50:58.166Z,10.60
2022-09-15T02:53:30.799Z,16.05
2022-09-15T02:56:06.940Z,13.35
2022-09-15T02:58:39.558Z,16.13
2022-09-15T03:01:16.216Z,10.18
2022-09-15T03:03:48.925Z,15.10
2022-09-15T03:06:21.810Z,11.70
2022-09-15T03:08:58.579Z,9.85
2022-09-15T03:11:31.472Z,11.50
2022-09-15T03:14:06.470Z,12.90
2022-09-15T03:16:39.122Z,12.25
2022-09-15T03:19:12.611Z,13.00
2022-09-15T03:21:45.417Z,12.68
2022-09-15T03:24:20.114Z,9.07
2022-09-15T03:26:52.796Z,10.82
2022-09-15T03:29:25.309Z,10.50
2022-09-15T03:31:58.146Z,10.32
2022-09-15T03:34:30.829Z,13.90
2022-09-15T03:37:03.637Z,14.07
2022-09-15T03:39:36.209Z,20.42
2022-09-15T03:42:08.803Z,19.73
2022-09-15T03:44:41.285Z,19.85
2022-09-15T03:47:13.912Z,24.75
2022-09-15T03:49:46.508Z,25.38
2022-09-15T03:52:19.058Z,27.38
2022-09-15T03:54:51.575Z,26.42
2022-09-15T03:57:24.457Z,33.25
2022-09-15T03:59:57.011Z,34.40
2022-09-15T04:02:30.029Z,32.90
2022-09-15T04:05:02.843Z,27.85
2022-09-15T04:07:35.456Z,39.45
2022-09-15T04:10:09.179Z,35.10
2022-09-15T04:12:42.274Z,37.00
2022-09-15T04:15:14.927Z,43.25
2022-09-15T04:17:48.843Z,35.88
2022-09-15T04:20:21.938Z,40.97
2022-09-15T04:22:54.701Z,36.92
2022-09-15T04:25:28.073Z,46.58
2022-09-15T04:28:00.810Z,38.83
2022-09-15T04:30:33.523Z,36.78
2022-09-15T04:33:06.127Z,38.58
2022-09-15T04:35:39.869Z,40.38
2022-09-15T04:38:12.539Z,40.70
2022-09-15T04:40:45.145Z,35.25
2022-09-15T04:43:17.703Z,37.08
2022-09-15T04:45:50.310Z,36.72
2022-09-15T04:48:23.707Z,31.73
2022-09-15T04:51:02.738Z,32.60
2022-09-15T04:53:35.927Z,32.83
2022-09-15T04:56:12.797Z,31.98
2022-09-15T04:59:03.586Z,36.97
2022-09-15T05:01:36.948Z,31.60
2022-09-15T05:04:10.139Z,34.05
2022-09-15T05:06:42.863Z,33.35
2022-09-15T05:09:15.623Z,32.65
2022-09-15T05:11:48.433Z,28.35
2022-09-15T05:14:21.222Z,26.33
2022-09-15T05:16:53.749Z,24.45
2022-09-15T05:19:26.486Z,29.45
2022-09-15T05:21:58.929Z,26.13
2022-09-15T05:24:31.538Z,22.95
2022-09-15T05:27:04.341Z,20.80
2022-09-15T05:30:35.175Z,23.50
2022-09-15T05:32:57.361Z,21.52
2022-09-15T05:35:30.071Z,22.65
2022-09-15T05:38:02.928Z,22.33
2022-09-15T05:40:35.674Z,20.73
2022-09-15T05:43:08.442Z,19.77
2022-09-15T05:45:43.244Z,20.10
2022-09-15T05:48:16.167Z,25.60
2022-09-15T05:50:51.805Z,16.95
2022-09-15T05:53:25.389Z,29.25
2022-09-15T05:56:00.518Z,20.70
2022-09-15T05:58:33.427Z,20.02
2022-09-15T06:01:09.236Z,21.92
2022-09-15T06:03:42.511Z,21.55
2022-09-15T06:06:15.655Z,25.08
2022-09-15T06:08:56.916Z,22.42
2022-09-15T06:11:31.622Z,26.42
2022-09-15T06:14:04.722Z,23.83
2022-09-15T06:16:37.443Z,21.60
2022-09-15T06:19:10.439Z,22.80
2022-09-15T06:21:43.416Z,20.73
2022-09-15T06:24:16.092Z,20.40
2022-09-15T06:26:48.908Z,25.00
2022-09-15T06:29:21.724Z,23.25
2022-09-15T06:31:57.477Z,30.40
2022-09-15T06:34:30.199Z,21.70
2022-09-15T06:37:03.153Z,25.60
2022-09-15T06:39:35.719Z,26.25
2022-09-15T06:42:09.529Z,26.92
2022-09-15T06:44:47.627Z,28.90
2022-09-15T06:47:20.193Z,19.92
2022-09-15T06:49:53.650Z,23.00
2022-09-15T06:52:26.532Z,21.55
2022-09-15T06:54:59.242Z,21.23
2022-09-15T06:57:31.852Z,21.48
2022-09-15T07:00:06.864Z,20.95
2022-09-15T07:02:39.658Z,25.77
2022-09-15T07:05:12.434Z,23.75
2022-09-15T07:07:45.184Z,38.53
2022-09-15T07:10:18.150Z,34.80
2022-09-15T07:12:50.836Z,21.88
2022-09-15T07:15:26.123Z,25.48
2022-09-15T07:17:59.917Z,19.77
2022-09-15T07:20:33.169Z,17.50
2022-09-15T07:23:05.714Z,16.45
2022-09-15T07:25:38.338Z,17.98
2022-09-15T07:28:13.335Z,18.73
2022-09-15T07:30:51.048Z,16.58
2022-09-15T07:33:23.919Z,20.38
2022-09-15T07:35:56.446Z,19.27
2022-09-15T07:38:29.135Z,15.95
2022-09-15T07:41:06.722Z,16.55
2022-09-15T07:43:39.971Z,17.20
2022-09-15T07:46:12.640Z,17.10
2022-09-15T07:48:47.167Z,13.82
2022-09-15T07:51:19.987Z,19.43
2022-09-15T07:53:53.548Z,16.15
2022-09-15T07:56:26.248Z,14.50
2022-09-15T07:58:59.067Z,19.88
2022-09-15T08:01:31.805Z,19.40
2022-09-15T08:04:04.533Z,18.77
2022-09-15T08:06:38.144Z,19.08
2022-09-15T08:09:15.060Z,17.90
2022-09-15T08:11:47.505Z,12.00
2022-09-15T08:14:20.132Z,17.10
2022-09-15T08:16:52.734Z,14.75
2022-09-15T08:19:25.282Z,23.60
2022-09-15T08:21:58.281Z,15.27
2022-09-15T08:24:30.959Z,15.40
2022-09-15T08:27:03.774Z,24.70
2022-09-15T08:29:36.350Z,19.02
2022-09-15T08:32:08.905Z,18.27
2022-09-15T08:34:41.611Z,19.25
2022-09-15T08:37:14.285Z,16.38
2022-09-15T08:39:47.074Z,18.02
2022-09-15T08:42:21.217Z,15.25
2022-09-15T08:45:18.187Z,13.13
2022-09-15T08:47:56.310Z,10.82
2022-09-15T08:50:30.150Z,16.63
2022-09-15T08:53:07.019Z,21.30
2022-09-15T08:55:51.488Z,13.32
2022-09-15T08:58:29.343Z,13.50
2022-09-15T09:01:10.354Z,11.07
2022-09-15T09:04:17.516Z,13.25
2022-09-15T09:06:58.873Z,13.23
2022-09-15T09:09:38.137Z,20.33
2022-09-15T09:12:22.048Z,12.90
2022-09-15T09:15:12.089Z,12.82
2022-09-15T09:18:00.017Z,15.98
2022-09-15T09:20:45.690Z,20.20
2022-09-15T09:23:22.713Z,15.25
2022-09-15T09:25:57.661Z,15.18
2022-09-15T09:28:33.071Z,24.98
2022-09-15T09:33:47.895Z,18.05
2022-09-15T09:36:21.301Z,17.17
2022-09-15T09:38:55.823Z,20.15
2022-09-15T09:41:35.948Z,20.17
2022-09-15T09:44:14.103Z,11.15
2022-09-15T09:46:47.679Z,13.60
2022-09-15T09:49:23.255Z,18.08
2022-09-15T09:52:00.249Z,15.70
2022-09-15T09:54:35.885Z,14.68
2022-09-15T09:57:23.378Z,16.58
2022-09-15T09:59:56.783Z,13.70
2022-09-15T10:02:29.635Z,16.02
2022-09-15T10:05:07.416Z,13.27
2022-09-15T10:07:44.040Z,13.80
2022-09-15T10:10:23.557Z,17.23
2022-09-15T10:12:56.980Z,13.68
2022-09-15T10:15:32.451Z,20.00
2022-09-15T10:18:05.366Z,15.45
2022-09-15T10:20:50.099Z,12.18
2022-09-15T10:23:28.508Z,12.32
2022-09-15T10:26:17.415Z,11.13
2022-09-15T10:29:15.562Z,14.60
2022-09-15T10:31:48.604Z,16.77
2022-09-15T10:34:31.358Z,14.88
2022-09-15T10:37:15.931Z,22.27
2022-09-15T10:39:55.650Z,15.57
2022-09-15T10:42:28.902Z,18.42
2022-09-15T10:45:19.037Z,14.98
2022-09-15T10:47:53.671Z,18.90
2022-09-15T10:50:32.671Z,15.35
2022-09-15T10:53:20.503Z,15.82
2022-09-15T10:56:17.329Z,13.50
2022-09-15T10:59:21.696Z,19.13
2022-09-15T11:02:02.339Z,15.93
2022-09-15T11:04:50.411Z,14.25
2022-09-15T11:07:48.025Z,20.05
2022-09-15T11:10:32.732Z,13.35
2022-09-15T11:13:18.647Z,12.90
2022-09-15T11:16:24.224Z,12.48
2022-09-15T11:21:47.015Z,14.23
2022-09-15T11:24:29.091Z,11.98
2022-09-15T11:27:08.606Z,13.70
2022-09-15T11:30:01.413Z,14.52
2022-09-15T11:32:45.348Z,12.20
2022-09-15T11:35:33.468Z,13.52
2022-09-15T11:38:23.011Z,11.40
2022-09-15T11:40:59.489Z,11.73
2022-09-15T11:43:40.171Z,14.07
2022-09-15T11:46:21.029Z,14.35
2022-09-15T11:49:03.838Z,12.88
2022-09-15T11:51:43.420Z,18.35
2022-09-15T11:54:24.365Z,17.67
2022-09-15T11:56:59.306Z,15.80
2022-09-15T11:59:49.437Z,16.10
2022-09-15T12:02:25.141Z,20.95
2022-09-15T12:05:15.748Z,13.52
2022-09-15T12:08:12.988Z,13.23
2022-09-15T12:10:52.819Z,18.67
2022-09-15T12:13:26.494Z,18.02
2022-09-15T12:16:02.825Z,10.95
2022-09-15T12:19:01.609Z,14.68
2022-09-15T12:21:54.114Z,16.40
2022-09-15T12:24:46.329Z,17.15
2022-09-15T12:27:20.931Z,15.57
2022-09-15T12:29:56.139Z,17.67
2022-09-15T12:35:18.206Z,16.25
2022-09-15T12:37:57.243Z,13.32
2022-09-15T12:40:33.782Z,16.13
2022-09-15T12:43:16.599Z,17.73
2022-09-15T12:46:00.856Z,13.88
2022-09-15T12:48:36.398Z,14.60
2022-09-15T12:51:11.103Z,14.80
2022-09-15T12:53:55.650Z,17.85
2022-09-15T12:56:31.417Z,16.33
2022-09-15T12:59:08.212Z,18.40
2022-09-15T13:01:45.664Z,18.60
2022-09-15T13:04:42.322Z,20.65
2022-09-15T13:07:17.352Z,21.08
2022-09-15T13:10:00.369Z,19.42
2022-09-15T13:12:39.205Z,16.02
2022-09-15T13:15:16.503Z,19.20
2022-09-15T13:17:49.705Z,19.65
2022-09-15T13:20:31.057Z,17.77
2022-09-15T13:23:07.818Z,16.33
2022-09-15T13:25:44.251Z,19.10
2022-09-15T13:28:18.456Z,18.67
2022-09-15T13:31:15.352Z,18.52
2022-09-15T13:40:32.503Z,11.60
2022-09-15T13:43:36.286Z,10.38
2022-09-15T13:46:22.694Z,11.07
2022-09-15T13:49:26.113Z,14.77
2022-09-15T13:52:08.425Z,13.82
2022-09-15T13:55:12.157Z,11.23
2022-09-15T14:00:58.442Z,8.23
2022-09-15T14:03:39.918Z,10.38
2022-09-15T14:06:21.734Z,7.70
2022-09-15T14:08:59.178Z,10.77
2022-09-15T14:11:34.655Z,10.05
2022-09-15T14:14:25.294Z,7.93
2022-09-15T14:16:58.055Z,7.25
2022-09-15T14:19:36.205Z,7.25
2022-09-15T14:22:28.051Z,9.30
2022-09-15T14:25:18.159Z,5.57
2022-09-15T14:27:53.491Z,9.35
2022-09-15T14:33:03.091Z,9.68
2022-09-15T14:35:38.286Z,10.35
2022-09-15T14:38:23.505Z,18.50
2022-09-15T14:40:59.629Z,14.40
2022-09-15T14:43:35.937Z,15.30
2022-09-15T14:46:13.289Z,12.20
2022-09-15T14:48:46.395Z,12.00
2022-09-15T14:51:25.767Z,15.38
2022-09-15T14:54:00.986Z,10.60
2022-09-15T14:56:36.692Z,14.77
2022-09-15T14:59:16.520Z,11.98
2022-09-15T15:02:06.367Z,16.73
2022-09-15T15:04:42.391Z,12.43
2022-09-15T15:07:24.212Z,12.85
2022-09-15T15:10:04.731Z,8.80
2022-09-15T15:12:44.736Z,10.70
2022-09-15T15:15:18.253Z,10.65
2022-09-15T15:17:54.981Z,7.70
2022-09-15T15:20:30.719Z,7.85
2022-09-15T15:23:14.031Z,7.00
2022-09-15T15:25:47.500Z,11.02
2022-09-15T15:28:33.059Z,7.07
2022-09-15T15:31:13.865Z,7.90
2022-09-15T15:33:53.077Z,7.95
2022-09-15T15:36:30.392Z,11.68
2022-09-15T15:39:06.934Z,9.13
2022-09-15T15:41:43.493Z,9.90
2022-09-15T15:44:18.086Z,8.20
2022-09-15T15:46:53.235Z,10.50
2022-09-15T15:49:29.266Z,9.45
2022-09-15T15:52:02.379Z,8.05
2022-09-15T15:54:34.936Z,9.70
2022-09-15T15:57:24.711Z,8.50
2022-09-15T16:00:00.844Z,8.85
2022-09-15T16:02:33.519Z,9.40
2022-09-15T16:05:06.453Z,11.60
2022-09-15T16:07:39.916Z,13.38
2022-09-15T16:10:19.062Z,7.97
2022-09-15T16:12:52.263Z,12.38
2022-09-15T16:15:24.864Z,13.95
2022-09-15T16:17:57.752Z,12.30
2022-09-15T16:20:30.764Z,11.73
2022-09-15T16:23:03.899Z,15.02
2022-09-15T16:25:41.254Z,12.20
2022-09-15T16:28:14.774Z,12.23
2022-09-15T16:30:47.993Z,12.38
2022-09-15T16:33:21.183Z,11.35
2022-09-15T16:36:04.060Z,14.90
2022-09-15T16:38:37.067Z,14.00
2022-09-15T16:41:15.616Z,13.45
2022-09-15T16:43:49.600Z,14.27
2022-09-15T16:46:23.115Z,13.48
2022-09-15T16:48:56.320Z,13.30
2022-09-15T16:51:31.600Z,13.18
2022-09-15T16:54:15.849Z,12.57
2022-09-15T16:56:48.509Z,15.82
2022-09-15T16:59:21.132Z,10.00
2022-09-15T17:01:54.098Z,9.43
2022-09-15T17:04:27.169Z,10.20
2022-09-15T17:07:00.172Z,12.80
2022-09-15T17:09:32.797Z,12.18
2022-09-15T17:12:05.995Z,14.63
2022-09-15T17:14:38.858Z,13.23
2022-09-15T17:17:26.801Z,11.50
2022-09-15T17:19:59.459Z,13.43
2022-09-15T17:22:32.675Z,14.98
2022-09-15T17:25:25.035Z,14.93
2022-09-15T17:27:58.752Z,9.38
2022-09-15T17:30:32.792Z,8.88
2022-09-15T17:33:08.249Z,10.13
2022-09-15T17:35:41.292Z,12.82
2022-09-15T17:38:14.222Z,13.07
2022-09-15T17:40:48.474Z,8.48
2022-09-15T17:43:23.348Z,12.30
2022-09-15T17:45:56.635Z,13.88
2022-09-15T17:48:29.183Z,13.38
2022-09-15T17:51:02.411Z,14.00
2022-09-15T17:53:35.211Z,10.43
2022-09-15T17:56:08.346Z,13.00
2022-09-15T17:58:41.722Z,12.50
2022-09-15T18:01:15.581Z,11.55
2022-09-15T18:03:48.776Z,9.52
2022-09-15T18:06:21.390Z,10.82
2022-09-15T18:08:54.096Z,15.70
2022-09-15T18:11:28.784Z,12.75
2022-09-15T18:14:01.191Z,13.43
2022-09-15T18:16:33.779Z,12.65
2022-09-15T18:19:06.552Z,14.65
2022-09-15T18:21:39.117Z,12.43
2022-09-15T18:24:15.207Z,12.07
2022-09-15T18:26:47.904Z,10.40
2022-09-15T18:29:20.642Z,13.00
2022-09-15T18:31:53.235Z,9.85
2022-09-15T18:34:25.822Z,14.70
2022-09-15T18:36:59.397Z,10.05
2022-09-15T18:39:32.246Z,11.07
2022-09-15T18:42:05.474Z,8.77
2022-09-15T18:44:38.055Z,14.05
2022-09-15T18:47:10.677Z,10.48
2022-09-15T18:49:43.213Z,11.50
2022-09-15T18:52:15.973Z,14.98
2022-09-15T18:54:48.454Z,10.80
2022-09-15T18:57:22.734Z,9.48
2022-09-15T18:59:55.551Z,7.47
2022-09-15T19:02:28.499Z,14.63
2022-09-15T19:05:01.064Z,8.13
2022-09-15T19:07:33.965Z,9.18
2022-09-15T19:10:08.168Z,7.28
2022-09-15T19:12:41.149Z,11.55
2022-09-15T19:15:14.470Z,10.93
2022-09-15T19:17:47.175Z,9.90
2022-09-15T19:20:19.749Z,10.32
2022-09-15T19:22:52.433Z,8.82
2022-09-15T19:25:25.156Z,10.95
2022-09-15T19:27:58.142Z,10.60
2022-09-15T19:30:30.678Z,11.75
2022-09-15T19:33:04.171Z,12.82
2022-09-15T19:35:36.662Z,10.73
2022-09-15T19:38:10.141Z,6.80
2022-09-15T19:40:43.003Z,10.10
2022-09-15T19:43:15.774Z,7.53
2022-09-15T19:45:48.389Z,10.85
2022-09-15T19:48:21.138Z,10.30
2022-09-15T19:50:54.208Z,8.50
2022-09-15T19:53:27.483Z,8.63
2022-09-15T19:56:00.245Z,7.97
2022-09-15T19:58:35.363Z,8.88
2022-09-15T20:03:43.861Z,9.85
2022-09-15T20:06:17.292Z,7.07
2022-09-15T20:08:58.936Z,8.38
2022-09-15T20:11:32.003Z,8.90
2022-09-15T20:14:06.741Z,9.43
2022-09-15T20:16:39.875Z,9.30
2022-09-15T20:19:12.659Z,9.73
2022-09-15T20:21:51.593Z,10.68
2022-09-15T20:24:25.033Z,9.45
2022-09-15T20:27:00.325Z,7.90
2022-09-15T20:32:06.238Z,10.65
2022-09-15T20:34:38.867Z,7.78
2022-09-15T20:37:11.904Z,8.75
2022-09-15T20:39:47.151Z,8.05
2022-09-15T20:42:19.678Z,7.93
2022-09-15T20:44:52.376Z,8.23
2022-09-15T20:47:25.166Z,6.93
2022-09-15T20:49:59.230Z,8.85
2022-09-15T20:52:37.373Z,9.93
2022-09-15T20:55:11.283Z,9.70
2022-09-15T20:57:43.912Z,8.25
2022-09-15T21:00:17.020Z,7.07
2022-09-15T21:02:52.667Z,10.85
2022-09-15T21:05:25.335Z,7.20
2022-09-15T21:07:58.236Z,7.65
2022-09-15T21:10:31.424Z,8.25
2022-09-15T21:13:04.021Z,7.45
2022-09-15T21:15:36.783Z,8.88
2022-09-15T21:18:10.529Z,9.55
2022-09-15T21:20:43.345Z,14.43
2022-09-15T21:23:17.568Z,8.77
2022-09-15T21:26:01.916Z,7.97
2022-09-15T21:28:35.648Z,11.13
2022-09-15T21:31:11.621Z,7.63
2022-09-15T21:33:45.672Z,11.15
2022-09-15T21:36:22.614Z,7.55
2022-09-15T21:38:56.987Z,11.02
2022-09-15T21:41:30.286Z,7.32
2022-09-15T21:44:03.873Z,8.98
2022-09-15T21:46:36.669Z,13.32
2022-09-15T21:49:09.417Z,8.25
2022-09-15T21:51:42.024Z,5.80
2022-09-15T21:54:15.255Z,6.28
2022-09-15T21:56:47.749Z,9.43
2022-09-15T21:59:20.438Z,9.15
2022-09-15T22:01:54.734Z,8.32
2022-09-15T22:04:27.480Z,10.35
2022-09-15T22:07:00.296Z,10.82
2022-09-15T22:09:33.039Z,8.70
2022-09-15T22:12:05.868Z,9.63
2022-09-15T22:14:38.380Z,5.32
2022-09-15T22:17:10.897Z,10.05
2022-09-15T22:19:43.514Z,9.02
2022-09-15T22:22:16.151Z,6.25
2022-09-15T22:24:48.759Z,11.15
2022-09-15T22:27:21.303Z,7.97
2022-09-15T22:29:53.896Z,15.40
2022-09-15T22:32:27.477Z,9.38
2022-09-15T22:35:00.074Z,9.05
2022-09-15T22:37:33.977Z,10.90
2022-09-15T22:40:07.429Z,10.02
2022-09-15T22:42:40.113Z,13.40
2022-09-15T22:45:12.684Z,8.55
2022-09-15T22:47:45.487Z,12.00
2022-09-15T22:50:18.104Z,8.52
2022-09-15T22:52:52.619Z,6.60
2022-09-15T22:55:25.822Z,7.57
2022-09-15T22:57:58.482Z,9.52
2022-09-15T23:00:32.925Z,5.78
2022-09-15T23:03:06.802Z,8.77
2022-09-15T23:05:39.622Z,8.25
2022-09-15T23:08:12.208Z,7.47
2022-09-15T23:10:44.911Z,9.32
2022-09-15T23:13:18.349Z,8.40
2022-09-15T23:15:50.895Z,7.88
2022-09-15T23:18:23.822Z,8.68
2022-09-15T23:21:00.825Z,7.00
2022-09-15T23:23:34.569Z,9.77
2022-09-15T23:26:10.267Z,11.60
2022-09-15T23:28:42.881Z,9.13
2022-09-15T23:31:16.338Z,9.07
2022-09-15T23:33:49.170Z,11.05
2022-09-15T23:36:22.095Z,8.95
2022-09-15T23:38:54.938Z,9.98
2022-09-15T23:41:27.614Z,7.57
2022-09-15T23:44:00.373Z,9.63
2022-09-15T23:46:33.453Z,9.23
2022-09-15T23:49:06.197Z,10.07
2022-09-15T23:51:38.667Z,9.63
2022-09-15T23:54:11.610Z,7.57
2022-09-15T23:56:44.087Z,9.70
2022-09-15T23:59:16.772Z,9.15
